sensor_id;sensor_type;location;lat;lon;timestamp;P1;durP1;ratioP1;P2;durP2;ratioP2
59418;SDS011;45224;50.904;6.038;2023-06-04T00:01:14;0.88;;;0.60;;
59418;SDS011;45224;50.904;6.038;2023-06-04T00:02:45;1.00;;;0.80;;
59418;SDS011;45224;50.904;6.038;2023-06-04T00:04:15;1.05;;;0.90;;
59418;SDS011;45224;50.904;6.038;2023-06-04T00:05:46;3.97;;;1.10;;
59418;SDS011;45224;50.904;6.038;2023-06-04T00:07:16;1.13;;;0.70;;
59418;SDS011;45224;50.904;6.038;2023-06-04T00:08:47;1.55;;;0.90;;
59418;SDS011;45224;50.904;6.038;2023-06-04T00:10:17;3.57;;;1.10;;
59418;SDS011;45224;50.904;6.038;2023-06-04T00:11:48;3.10;;;1.15;;
59418;SDS011;45224;50.904;6.038;2023-06-04T00:13:18;2.83;;;1.17;;
59418;SDS011;45224;50.904;6.038;2023-06-04T00:14:49;2.28;;;0.82;;
59418;SDS011;45224;50.904;6.038;2023-06-04T00:16:20;1.00;;;0.90;;
59418;SDS011;45224;50.904;6.038;2023-06-04T00:17:50;0.90;;;0.70;;
59418;SDS011;45224;50.904;6.038;2023-06-04T00:19:21;2.07;;;0.90;;
59418;SDS011;45224;50.904;6.038;2023-06-04T00:20:51;1.23;;;0.90;;
59418;SDS011;45224;50.904;6.038;2023-06-04T00:22:22;2.03;;;1.00;;
59418;SDS011;45224;50.904;6.038;2023-06-04T00:23:53;1.25;;;0.70;;
59418;SDS011;45224;50.904;6.038;2023-06-04T00:25:24;1.23;;;0.80;;
59418;SDS011;45224;50.904;6.038;2023-06-04T00:26:54;1.60;;;0.87;;
59418;SDS011;45224;50.904;6.038;2023-06-04T00:28:25;2.43;;;0.90;;
59418;SDS011;45224;50.904;6.038;2023-06-04T00:29:55;1.58;;;1.00;;
59418;SDS011;45224;50.904;6.038;2023-06-04T00:31:26;3.93;;;0.77;;
59418;SDS011;45224;50.904;6.038;2023-06-04T00:32:57;1.23;;;0.90;;
59418;SDS011;45224;50.904;6.038;2023-06-04T00:34:27;1.17;;;0.77;;
59418;SDS011;45224;50.904;6.038;2023-06-04T00:35:57;1.80;;;0.70;;
59418;SDS011;45224;50.904;6.038;2023-06-04T00:37:28;1.17;;;0.70;;
59418;SDS011;45224;50.904;6.038;2023-06-04T00:38:59;1.60;;;0.68;;
59418;SDS011;45224;50.904;6.038;2023-06-04T00:40:30;0.93;;;0.70;;
59418;SDS011;45224;50.904;6.038;2023-06-04T00:42:00;1.77;;;0.80;;
59418;SDS011;45224;50.904;6.038;2023-06-04T00:43:31;3.45;;;0.70;;
59418;SDS011;45224;50.904;6.038;2023-06-04T00:45:02;2.03;;;0.80;;
59418;SDS011;45224;50.904;6.038;2023-06-04T00:46:34;1.27;;;0.80;;
59418;SDS011;45224;50.904;6.038;2023-06-04T00:48:06;1.25;;;0.80;;
59418;SDS011;45224;50.904;6.038;2023-06-04T00:49:37;1.20;;;0.80;;
59418;SDS011;45224;50.904;6.038;2023-06-04T00:51:07;1.35;;;0.90;;
59418;SDS011;45224;50.904;6.038;2023-06-04T00:52:38;1.38;;;0.80;;
59418;SDS011;45224;50.904;6.038;2023-06-04T00:54:08;2.00;;;0.90;;
59418;SDS011;45224;50.904;6.038;2023-06-04T00:57:10;1.23;;;0.67;;
59418;SDS011;45224;50.904;6.038;2023-06-04T00:58:41;2.30;;;0.80;;
59418;SDS011;45224;50.904;6.038;2023-06-04T01:00:13;3.88;;;0.90;;
59418;SDS011;45224;50.904;6.038;2023-06-04T01:03:20;2.08;;;0.80;;
59418;SDS011;45224;50.904;6.038;2023-06-04T01:06:39;0.98;;;0.70;;
59418;SDS011;45224;50.904;6.038;2023-06-04T01:08:15;1.33;;;0.80;;
59418;SDS011;45224;50.904;6.038;2023-06-04T01:09:46;1.40;;;0.77;;
59418;SDS011;45224;50.904;6.038;2023-06-04T01:11:17;2.95;;;0.70;;
59418;SDS011;45224;50.904;6.038;2023-06-04T01:12:48;1.07;;;0.70;;
59418;SDS011;45224;50.904;6.038;2023-06-04T01:14:18;4.10;;;0.90;;
59418;SDS011;45224;50.904;6.038;2023-06-04T01:15:50;4.55;;;0.80;;
59418;SDS011;45224;50.904;6.038;2023-06-04T01:17:29;1.88;;;0.70;;
59418;SDS011;45224;50.904;6.038;2023-06-04T01:19:32;0.85;;;0.80;;
59418;SDS011;45224;50.904;6.038;2023-06-04T01:21:12;1.92;;;0.80;;
59418;SDS011;45224;50.904;6.038;2023-06-04T01:24:31;1.02;;;0.73;;
59418;SDS011;45224;50.904;6.038;2023-06-04T01:26:06;1.30;;;0.80;;
59418;SDS011;45224;50.904;6.038;2023-06-04T01:27:39;3.17;;;0.80;;
59418;SDS011;45224;50.904;6.038;2023-06-04T01:29:10;2.58;;;0.70;;
59418;SDS011;45224;50.904;6.038;2023-06-04T01:30:41;0.80;;;0.60;;
59418;SDS011;45224;50.904;6.038;2023-06-04T01:32:16;0.73;;;0.60;;
59418;SDS011;45224;50.904;6.038;2023-06-04T01:33:47;0.70;;;0.70;;
59418;SDS011;45224;50.904;6.038;2023-06-04T01:35:17;1.08;;;0.70;;
59418;SDS011;45224;50.904;6.038;2023-06-04T01:36:48;1.05;;;0.90;;
59418;SDS011;45224;50.904;6.038;2023-06-04T01:38:19;2.00;;;0.70;;
59418;SDS011;45224;50.904;6.038;2023-06-04T01:39:50;1.38;;;0.90;;
59418;SDS011;45224;50.904;6.038;2023-06-04T01:41:20;1.90;;;0.90;;
59418;SDS011;45224;50.904;6.038;2023-06-04T01:42:50;1.77;;;0.80;;
59418;SDS011;45224;50.904;6.038;2023-06-04T01:44:21;1.27;;;0.88;;
59418;SDS011;45224;50.904;6.038;2023-06-04T01:45:52;1.23;;;0.90;;
59418;SDS011;45224;50.904;6.038;2023-06-04T01:47:24;1.83;;;0.93;;
59418;SDS011;45224;50.904;6.038;2023-06-04T01:48:55;1.60;;;0.90;;
59418;SDS011;45224;50.904;6.038;2023-06-04T01:50:25;1.70;;;0.90;;
59418;SDS011;45224;50.904;6.038;2023-06-04T01:51:56;1.27;;;0.98;;
59418;SDS011;45224;50.904;6.038;2023-06-04T01:53:26;1.17;;;0.90;;
59418;SDS011;45224;50.904;6.038;2023-06-04T01:54:57;1.17;;;0.95;;
59418;SDS011;45224;50.904;6.038;2023-06-04T01:56:28;0.88;;;0.70;;
59418;SDS011;45224;50.904;6.038;2023-06-04T01:57:59;2.07;;;0.90;;
59418;SDS011;45224;50.904;6.038;2023-06-04T01:59:30;1.95;;;0.80;;
59418;SDS011;45224;50.904;6.038;2023-06-04T02:01:02;1.33;;;1.10;;
59418;SDS011;45224;50.904;6.038;2023-06-04T02:02:33;1.10;;;0.80;;
59418;SDS011;45224;50.904;6.038;2023-06-04T02:04:04;1.50;;;0.80;;
59418;SDS011;45224;50.904;6.038;2023-06-04T02:05:34;3.63;;;0.90;;
59418;SDS011;45224;50.904;6.038;2023-06-04T02:07:05;1.23;;;0.70;;
59418;SDS011;45224;50.904;6.038;2023-06-04T02:08:37;3.80;;;1.13;;
59418;SDS011;45224;50.904;6.038;2023-06-04T02:10:09;1.65;;;1.02;;
59418;SDS011;45224;50.904;6.038;2023-06-04T02:11:40;3.60;;;1.30;;
59418;SDS011;45224;50.904;6.038;2023-06-04T02:13:10;1.20;;;1.10;;
59418;SDS011;45224;50.904;6.038;2023-06-04T02:14:41;2.93;;;1.40;;
59418;SDS011;45224;50.904;6.038;2023-06-04T02:16:13;1.63;;;1.10;;
59418;SDS011;45224;50.904;6.038;2023-06-04T02:17:43;1.40;;;1.20;;
59418;SDS011;45224;50.904;6.038;2023-06-04T02:19:15;1.80;;;1.20;;
59418;SDS011;45224;50.904;6.038;2023-06-04T02:20:49;1.77;;;1.02;;
59418;SDS011;45224;50.904;6.038;2023-06-04T02:22:20;2.10;;;0.85;;
59418;SDS011;45224;50.904;6.038;2023-06-04T02:23:50;1.60;;;1.10;;
59418;SDS011;45224;50.904;6.038;2023-06-04T02:25:21;2.80;;;1.00;;
59418;SDS011;45224;50.904;6.038;2023-06-04T02:26:52;2.08;;;1.00;;
59418;SDS011;45224;50.904;6.038;2023-06-04T02:28:23;1.63;;;0.73;;
59418;SDS011;45224;50.904;6.038;2023-06-04T02:29:54;1.40;;;0.90;;
59418;SDS011;45224;50.904;6.038;2023-06-04T02:31:25;1.67;;;1.02;;
59418;SDS011;45224;50.904;6.038;2023-06-04T02:32:55;1.53;;;1.00;;
59418;SDS011;45224;50.904;6.038;2023-06-04T02:34:26;1.07;;;0.90;;
59418;SDS011;45224;50.904;6.038;2023-06-04T02:35:57;1.30;;;0.88;;
59418;SDS011;45224;50.904;6.038;2023-06-04T02:37:28;2.33;;;1.00;;
59418;SDS011;45224;50.904;6.038;2023-06-04T02:38:58;3.57;;;1.00;;
59418;SDS011;45224;50.904;6.038;2023-06-04T02:40:29;1.83;;;0.80;;
59418;SDS011;45224;50.904;6.038;2023-06-04T02:41:59;2.60;;;1.00;;
59418;SDS011;45224;50.904;6.038;2023-06-04T02:43:30;1.00;;;0.90;;
59418;SDS011;45224;50.904;6.038;2023-06-04T02:45:00;4.47;;;0.87;;
59418;SDS011;45224;50.904;6.038;2023-06-04T02:46:30;1.17;;;0.93;;
59418;SDS011;45224;50.904;6.038;2023-06-04T02:48:01;0.80;;;0.80;;
59418;SDS011;45224;50.904;6.038;2023-06-04T02:49:31;1.93;;;0.90;;
59418;SDS011;45224;50.904;6.038;2023-06-04T02:51:02;3.30;;;1.23;;
59418;SDS011;45224;50.904;6.038;2023-06-04T02:52:32;1.17;;;1.00;;
59418;SDS011;45224;50.904;6.038;2023-06-04T02:54:07;1.13;;;0.75;;
59418;SDS011;45224;50.904;6.038;2023-06-04T02:55:37;0.90;;;0.80;;
59418;SDS011;45224;50.904;6.038;2023-06-04T02:57:08;4.37;;;1.00;;
59418;SDS011;45224;50.904;6.038;2023-06-04T02:58:48;0.80;;;0.80;;
59418;SDS011;45224;50.904;6.038;2023-06-04T03:00:22;3.08;;;1.30;;
59418;SDS011;45224;50.904;6.038;2023-06-04T03:01:53;1.67;;;1.02;;
59418;SDS011;45224;50.904;6.038;2023-06-04T03:03:24;1.83;;;1.02;;
59418;SDS011;45224;50.904;6.038;2023-06-04T03:04:54;1.20;;;1.03;;
59418;SDS011;45224;50.904;6.038;2023-06-04T03:06:25;2.05;;;0.95;;
59418;SDS011;45224;50.904;6.038;2023-06-04T03:07:57;2.00;;;1.00;;
59418;SDS011;45224;50.904;6.038;2023-06-04T03:09:29;1.73;;;1.20;;
59418;SDS011;45224;50.904;6.038;2023-06-04T03:11:00;2.97;;;1.10;;
59418;SDS011;45224;50.904;6.038;2023-06-04T03:12:31;1.73;;;1.20;;
59418;SDS011;45224;50.904;6.038;2023-06-04T03:14:01;2.00;;;1.38;;
59418;SDS011;45224;50.904;6.038;2023-06-04T03:15:32;1.77;;;1.30;;
59418;SDS011;45224;50.904;6.038;2023-06-04T03:17:02;1.77;;;1.13;;
59418;SDS011;45224;50.904;6.038;2023-06-04T03:18:41;2.05;;;1.40;;
59418;SDS011;45224;50.904;6.038;2023-06-04T03:20:12;2.15;;;1.40;;
59418;SDS011;45224;50.904;6.038;2023-06-04T03:21:43;2.90;;;1.08;;
59418;SDS011;45224;50.904;6.038;2023-06-04T03:23:15;1.42;;;1.10;;
59418;SDS011;45224;50.904;6.038;2023-06-04T03:24:46;1.40;;;1.00;;
59418;SDS011;45224;50.904;6.038;2023-06-04T03:26:16;1.63;;;1.20;;
59418;SDS011;45224;50.904;6.038;2023-06-04T03:27:47;3.20;;;1.50;;
59418;SDS011;45224;50.904;6.038;2023-06-04T03:29:18;1.65;;;1.17;;
59418;SDS011;45224;50.904;6.038;2023-06-04T03:30:48;1.93;;;1.30;;
59418;SDS011;45224;50.904;6.038;2023-06-04T03:32:20;1.80;;;1.20;;
59418;SDS011;45224;50.904;6.038;2023-06-04T03:33:51;2.60;;;1.45;;
59418;SDS011;45224;50.904;6.038;2023-06-04T03:35:22;3.50;;;1.40;;
59418;SDS011;45224;50.904;6.038;2023-06-04T03:36:53;2.87;;;1.43;;
59418;SDS011;45224;50.904;6.038;2023-06-04T03:38:25;3.00;;;1.45;;
59418;SDS011;45224;50.904;6.038;2023-06-04T03:39:56;2.25;;;1.50;;
59418;SDS011;45224;50.904;6.038;2023-06-04T03:41:27;1.87;;;1.17;;
59418;SDS011;45224;50.904;6.038;2023-06-04T03:42:57;2.80;;;1.60;;
59418;SDS011;45224;50.904;6.038;2023-06-04T03:44:32;3.13;;;1.30;;
59418;SDS011;45224;50.904;6.038;2023-06-04T03:46:03;5.47;;;1.75;;
59418;SDS011;45224;50.904;6.038;2023-06-04T03:47:33;3.43;;;1.60;;
59418;SDS011;45224;50.904;6.038;2023-06-04T03:50:35;2.90;;;1.30;;
59418;SDS011;45224;50.904;6.038;2023-06-04T03:52:06;3.60;;;1.52;;
59418;SDS011;45224;50.904;6.038;2023-06-04T03:53:36;2.75;;;1.33;;
59418;SDS011;45224;50.904;6.038;2023-06-04T03:55:07;4.17;;;1.30;;
59418;SDS011;45224;50.904;6.038;2023-06-04T03:56:39;2.45;;;1.30;;
59418;SDS011;45224;50.904;6.038;2023-06-04T03:58:12;2.15;;;1.50;;
59418;SDS011;45224;50.904;6.038;2023-06-04T03:59:49;1.55;;;1.15;;
59418;SDS011;45224;50.904;6.038;2023-06-04T04:01:21;1.88;;;1.30;;
59418;SDS011;45224;50.904;6.038;2023-06-04T04:02:53;1.45;;;1.17;;
59418;SDS011;45224;50.904;6.038;2023-06-04T04:04:30;3.05;;;1.50;;
59418;SDS011;45224;50.904;6.038;2023-06-04T04:06:03;2.22;;;1.27;;
59418;SDS011;45224;50.904;6.038;2023-06-04T04:07:33;2.17;;;1.30;;
59418;SDS011;45224;50.904;6.038;2023-06-04T04:09:04;3.87;;;1.40;;
59418;SDS011;45224;50.904;6.038;2023-06-04T04:10:36;2.08;;;1.20;;
59418;SDS011;45224;50.904;6.038;2023-06-04T04:12:08;2.85;;;1.50;;
59418;SDS011;45224;50.904;6.038;2023-06-04T04:13:39;2.20;;;1.45;;
59418;SDS011;45224;50.904;6.038;2023-06-04T04:15:10;2.25;;;1.40;;
59418;SDS011;45224;50.904;6.038;2023-06-04T04:16:41;1.40;;;1.30;;
59418;SDS011;45224;50.904;6.038;2023-06-04T04:18:11;2.47;;;1.47;;
59418;SDS011;45224;50.904;6.038;2023-06-04T04:19:43;2.15;;;1.38;;
59418;SDS011;45224;50.904;6.038;2023-06-04T04:21:14;2.17;;;1.50;;
59418;SDS011;45224;50.904;6.038;2023-06-04T04:22:44;2.40;;;1.27;;
59418;SDS011;45224;50.904;6.038;2023-06-04T04:24:26;2.25;;;1.30;;
59418;SDS011;45224;50.904;6.038;2023-06-04T04:26:01;1.70;;;1.30;;
59418;SDS011;45224;50.904;6.038;2023-06-04T04:27:32;1.77;;;1.30;;
59418;SDS011;45224;50.904;6.038;2023-06-04T04:29:04;1.52;;;1.33;;
59418;SDS011;45224;50.904;6.038;2023-06-04T04:30:39;2.13;;;1.20;;
59418;SDS011;45224;50.904;6.038;2023-06-04T04:32:12;3.97;;;1.40;;
59418;SDS011;45224;50.904;6.038;2023-06-04T04:33:48;2.83;;;1.23;;
59418;SDS011;45224;50.904;6.038;2023-06-04T04:35:21;2.13;;;1.48;;
59418;SDS011;45224;50.904;6.038;2023-06-04T04:36:54;1.77;;;1.40;;
59418;SDS011;45224;50.904;6.038;2023-06-04T04:38:27;2.60;;;1.40;;
59418;SDS011;45224;50.904;6.038;2023-06-04T04:40:05;2.72;;;1.30;;
59418;SDS011;45224;50.904;6.038;2023-06-04T04:41:39;3.15;;;1.45;;
59418;SDS011;45224;50.904;6.038;2023-06-04T04:43:10;1.92;;;1.27;;
59418;SDS011;45224;50.904;6.038;2023-06-04T04:44:41;3.42;;;1.60;;
59418;SDS011;45224;50.904;6.038;2023-06-04T04:46:11;6.93;;;1.37;;
59418;SDS011;45224;50.904;6.038;2023-06-04T04:47:42;2.63;;;1.50;;
59418;SDS011;45224;50.904;6.038;2023-06-04T04:49:13;2.08;;;1.30;;
59418;SDS011;45224;50.904;6.038;2023-06-04T04:50:43;5.33;;;1.50;;
59418;SDS011;45224;50.904;6.038;2023-06-04T04:52:14;2.70;;;1.47;;
59418;SDS011;45224;50.904;6.038;2023-06-04T04:53:46;3.10;;;1.58;;
59418;SDS011;45224;50.904;6.038;2023-06-04T04:55:16;4.73;;;1.50;;
59418;SDS011;45224;50.904;6.038;2023-06-04T04:56:50;10.38;;;1.92;;
59418;SDS011;45224;50.904;6.038;2023-06-04T04:58:20;9.97;;;1.30;;
59418;SDS011;45224;50.904;6.038;2023-06-04T04:59:51;5.15;;;1.63;;
59418;SDS011;45224;50.904;6.038;2023-06-04T05:01:22;4.88;;;1.60;;
59418;SDS011;45224;50.904;6.038;2023-06-04T05:02:54;6.00;;;1.60;;
59418;SDS011;45224;50.904;6.038;2023-06-04T05:04:25;7.47;;;1.30;;
59418;SDS011;45224;50.904;6.038;2023-06-04T05:05:56;4.47;;;1.65;;
59418;SDS011;45224;50.904;6.038;2023-06-04T05:07:27;3.65;;;1.80;;
59418;SDS011;45224;50.904;6.038;2023-06-04T05:08:58;5.72;;;1.55;;
59418;SDS011;45224;50.904;6.038;2023-06-04T05:10:29;4.63;;;1.30;;
59418;SDS011;45224;50.904;6.038;2023-06-04T05:11:59;4.93;;;1.40;;
59418;SDS011;45224;50.904;6.038;2023-06-04T05:15:06;2.17;;;1.45;;
59418;SDS011;45224;50.904;6.038;2023-06-04T05:16:37;3.03;;;1.20;;
59418;SDS011;45224;50.904;6.038;2023-06-04T05:18:10;4.78;;;1.40;;
59418;SDS011;45224;50.904;6.038;2023-06-04T05:19:42;3.65;;;1.90;;
59418;SDS011;45224;50.904;6.038;2023-06-04T05:22:49;4.85;;;1.38;;
59418;SDS011;45224;50.904;6.038;2023-06-04T05:24:21;1.83;;;1.27;;
59418;SDS011;45224;50.904;6.038;2023-06-04T05:25:52;4.82;;;1.48;;
59418;SDS011;45224;50.904;6.038;2023-06-04T05:28:54;3.07;;;1.50;;
59418;SDS011;45224;50.904;6.038;2023-06-04T05:30:26;2.50;;;1.35;;
59418;SDS011;45224;50.904;6.038;2023-06-04T05:31:56;5.18;;;1.35;;
59418;SDS011;45224;50.904;6.038;2023-06-04T05:33:28;2.55;;;1.52;;
59418;SDS011;45224;50.904;6.038;2023-06-04T05:35:04;1.63;;;1.02;;
59418;SDS011;45224;50.904;6.038;2023-06-04T05:36:37;4.18;;;1.50;;
59418;SDS011;45224;50.904;6.038;2023-06-04T05:38:11;1.83;;;1.30;;
59418;SDS011;45224;50.904;6.038;2023-06-04T05:39:46;3.75;;;1.48;;
59418;SDS011;45224;50.904;6.038;2023-06-04T05:41:19;1.90;;;1.17;;
59418;SDS011;45224;50.904;6.038;2023-06-04T05:42:53;1.50;;;1.20;;
59418;SDS011;45224;50.904;6.038;2023-06-04T05:44:24;2.47;;;1.37;;
59418;SDS011;45224;50.904;6.038;2023-06-04T05:45:55;1.85;;;1.35;;
59418;SDS011;45224;50.904;6.038;2023-06-04T05:47:26;2.17;;;1.23;;
59418;SDS011;45224;50.904;6.038;2023-06-04T05:48:59;1.90;;;1.17;;
59418;SDS011;45224;50.904;6.038;2023-06-04T05:50:30;4.63;;;1.70;;
59418;SDS011;45224;50.904;6.038;2023-06-04T05:52:01;3.03;;;1.58;;
59418;SDS011;45224;50.904;6.038;2023-06-04T05:53:31;3.92;;;1.45;;
59418;SDS011;45224;50.904;6.038;2023-06-04T05:55:03;2.17;;;1.35;;
59418;SDS011;45224;50.904;6.038;2023-06-04T05:56:33;3.17;;;1.52;;
59418;SDS011;45224;50.904;6.038;2023-06-04T05:58:05;1.73;;;1.30;;
59418;SDS011;45224;50.904;6.038;2023-06-04T05:59:35;2.08;;;1.23;;
59418;SDS011;45224;50.904;6.038;2023-06-04T06:01:09;2.28;;;1.30;;
59418;SDS011;45224;50.904;6.038;2023-06-04T06:02:39;8.02;;;1.50;;
59418;SDS011;45224;50.904;6.038;2023-06-04T06:04:10;1.63;;;1.40;;
59418;SDS011;45224;50.904;6.038;2023-06-04T06:05:43;2.60;;;1.50;;
59418;SDS011;45224;50.904;6.038;2023-06-04T06:07:13;1.30;;;1.15;;
59418;SDS011;45224;50.904;6.038;2023-06-04T06:08:44;1.67;;;1.27;;
59418;SDS011;45224;50.904;6.038;2023-06-04T06:10:14;4.55;;;1.33;;
59418;SDS011;45224;50.904;6.038;2023-06-04T06:11:45;1.70;;;1.40;;
59418;SDS011;45224;50.904;6.038;2023-06-04T06:13:16;1.95;;;1.50;;
59418;SDS011;45224;50.904;6.038;2023-06-04T06:14:47;1.75;;;1.40;;
59418;SDS011;45224;50.904;6.038;2023-06-04T06:16:18;2.00;;;1.40;;
59418;SDS011;45224;50.904;6.038;2023-06-04T06:17:49;2.65;;;1.35;;
59418;SDS011;45224;50.904;6.038;2023-06-04T06:19:20;3.25;;;1.30;;
59418;SDS011;45224;50.904;6.038;2023-06-04T06:20:51;1.58;;;1.20;;
59418;SDS011;45224;50.904;6.038;2023-06-04T06:22:22;4.63;;;1.63;;
59418;SDS011;45224;50.904;6.038;2023-06-04T06:23:53;4.22;;;1.40;;
59418;SDS011;45224;50.904;6.038;2023-06-04T06:27:00;2.85;;;1.45;;
59418;SDS011;45224;50.904;6.038;2023-06-04T06:28:31;8.52;;;1.85;;
59418;SDS011;45224;50.904;6.038;2023-06-04T06:30:02;2.95;;;1.35;;
59418;SDS011;45224;50.904;6.038;2023-06-04T06:31:33;2.70;;;1.27;;
59418;SDS011;45224;50.904;6.038;2023-06-04T06:33:04;2.13;;;1.30;;
59418;SDS011;45224;50.904;6.038;2023-06-04T06:34:34;4.67;;;1.40;;
59418;SDS011;45224;50.904;6.038;2023-06-04T06:36:05;4.95;;;1.58;;
59418;SDS011;45224;50.904;6.038;2023-06-04T06:37:36;4.43;;;1.40;;
59418;SDS011;45224;50.904;6.038;2023-06-04T06:39:12;3.15;;;1.35;;
59418;SDS011;45224;50.904;6.038;2023-06-04T06:40:42;3.63;;;1.20;;
59418;SDS011;45224;50.904;6.038;2023-06-04T06:42:13;3.15;;;1.30;;
59418;SDS011;45224;50.904;6.038;2023-06-04T06:43:46;1.85;;;1.50;;
59418;SDS011;45224;50.904;6.038;2023-06-04T06:45:20;2.60;;;1.30;;
59418;SDS011;45224;50.904;6.038;2023-06-04T06:46:50;4.50;;;1.20;;
59418;SDS011;45224;50.904;6.038;2023-06-04T06:48:21;4.07;;;1.30;;
59418;SDS011;45224;50.904;6.038;2023-06-04T06:49:51;2.57;;;1.37;;
59418;SDS011;45224;50.904;6.038;2023-06-04T06:51:22;2.60;;;1.25;;
59418;SDS011;45224;50.904;6.038;2023-06-04T06:52:52;3.10;;;1.30;;
59418;SDS011;45224;50.904;6.038;2023-06-04T06:54:23;1.60;;;1.40;;
59418;SDS011;45224;50.904;6.038;2023-06-04T06:55:53;1.67;;;1.30;;
59418;SDS011;45224;50.904;6.038;2023-06-04T06:57:24;1.50;;;1.20;;
59418;SDS011;45224;50.904;6.038;2023-06-04T06:58:54;1.83;;;1.35;;
59418;SDS011;45224;50.904;6.038;2023-06-04T07:00:25;1.85;;;1.48;;
59418;SDS011;45224;50.904;6.038;2023-06-04T07:01:58;5.78;;;1.38;;
59418;SDS011;45224;50.904;6.038;2023-06-04T07:03:28;2.50;;;1.47;;
59418;SDS011;45224;50.904;6.038;2023-06-04T07:04:59;1.70;;;1.30;;
59418;SDS011;45224;50.904;6.038;2023-06-04T07:06:29;2.33;;;1.42;;
59418;SDS011;45224;50.904;6.038;2023-06-04T07:07:59;2.27;;;1.40;;
59418;SDS011;45224;50.904;6.038;2023-06-04T07:09:31;2.67;;;1.20;;
59418;SDS011;45224;50.904;6.038;2023-06-04T07:11:02;3.53;;;1.10;;
59418;SDS011;45224;50.904;6.038;2023-06-04T07:12:33;2.58;;;1.20;;
59418;SDS011;45224;50.904;6.038;2023-06-04T07:14:03;1.83;;;1.33;;
59418;SDS011;45224;50.904;6.038;2023-06-04T07:15:34;4.07;;;1.33;;
59418;SDS011;45224;50.904;6.038;2023-06-04T07:17:05;3.13;;;2.30;;
59418;SDS011;45224;50.904;6.038;2023-06-04T07:18:35;2.43;;;1.57;;
59418;SDS011;45224;50.904;6.038;2023-06-04T07:20:06;2.97;;;1.80;;
59418;SDS011;45224;50.904;6.038;2023-06-04T07:21:38;2.97;;;1.45;;
59418;SDS011;45224;50.904;6.038;2023-06-04T07:23:08;1.93;;;1.30;;
59418;SDS011;45224;50.904;6.038;2023-06-04T07:24:39;1.60;;;1.45;;
59418;SDS011;45224;50.904;6.038;2023-06-04T07:26:10;2.08;;;1.10;;
59418;SDS011;45224;50.904;6.038;2023-06-04T07:27:40;2.40;;;1.10;;
59418;SDS011;45224;50.904;6.038;2023-06-04T07:29:11;1.37;;;1.10;;
59418;SDS011;45224;50.904;6.038;2023-06-04T07:30:41;2.88;;;1.20;;
59418;SDS011;45224;50.904;6.038;2023-06-04T07:32:12;1.92;;;1.20;;
59418;SDS011;45224;50.904;6.038;2023-06-04T07:33:43;3.53;;;1.50;;
59418;SDS011;45224;50.904;6.038;2023-06-04T07:35:14;2.08;;;1.23;;
59418;SDS011;45224;50.904;6.038;2023-06-04T07:36:45;4.45;;;1.35;;
59418;SDS011;45224;50.904;6.038;2023-06-04T07:38:16;2.27;;;1.20;;
59418;SDS011;45224;50.904;6.038;2023-06-04T07:39:46;2.75;;;1.20;;
59418;SDS011;45224;50.904;6.038;2023-06-04T07:41:17;2.78;;;1.38;;
59418;SDS011;45224;50.904;6.038;2023-06-04T07:42:47;1.75;;;1.02;;
59418;SDS011;45224;50.904;6.038;2023-06-04T07:44:18;1.95;;;0.98;;
59418;SDS011;45224;50.904;6.038;2023-06-04T07:45:48;3.85;;;1.35;;
59418;SDS011;45224;50.904;6.038;2023-06-04T07:47:19;1.63;;;1.10;;
59418;SDS011;45224;50.904;6.038;2023-06-04T07:48:50;2.97;;;1.10;;
59418;SDS011;45224;50.904;6.038;2023-06-04T07:50:20;3.63;;;1.08;;
59418;SDS011;45224;50.904;6.038;2023-06-04T07:51:51;2.55;;;1.27;;
59418;SDS011;45224;50.904;6.038;2023-06-04T07:53:21;2.33;;;1.00;;
59418;SDS011;45224;50.904;6.038;2023-06-04T07:54:52;1.60;;;1.20;;
59418;SDS011;45224;50.904;6.038;2023-06-04T07:56:22;1.23;;;0.95;;
59418;SDS011;45224;50.904;6.038;2023-06-04T07:57:53;2.15;;;1.05;;
59418;SDS011;45224;50.904;6.038;2023-06-04T07:59:23;2.00;;;0.95;;
59418;SDS011;45224;50.904;6.038;2023-06-04T08:00:54;2.10;;;1.00;;
59418;SDS011;45224;50.904;6.038;2023-06-04T08:02:25;2.70;;;1.10;;
59418;SDS011;45224;50.904;6.038;2023-06-04T08:03:56;2.65;;;1.00;;
59418;SDS011;45224;50.904;6.038;2023-06-04T08:05:28;1.73;;;1.10;;
59418;SDS011;45224;50.904;6.038;2023-06-04T08:06:59;2.58;;;1.30;;
59418;SDS011;45224;50.904;6.038;2023-06-04T08:08:30;3.00;;;1.10;;
59418;SDS011;45224;50.904;6.038;2023-06-04T08:10:01;2.03;;;1.10;;
59418;SDS011;45224;50.904;6.038;2023-06-04T08:13:02;2.00;;;1.10;;
59418;SDS011;45224;50.904;6.038;2023-06-04T08:14:32;2.22;;;1.00;;
59418;SDS011;45224;50.904;6.038;2023-06-04T08:16:03;2.97;;;1.00;;
59418;SDS011;45224;50.904;6.038;2023-06-04T08:19:04;5.37;;;1.30;;
59418;SDS011;45224;50.904;6.038;2023-06-04T08:20:36;2.08;;;1.73;;
59418;SDS011;45224;50.904;6.038;2023-06-04T08:23:39;2.00;;;1.30;;
59418;SDS011;45224;50.904;6.038;2023-06-04T08:26:40;1.38;;;1.00;;
59418;SDS011;45224;50.904;6.038;2023-06-04T08:28:12;1.40;;;1.00;;
59418;SDS011;45224;50.904;6.038;2023-06-04T08:29:44;3.03;;;0.90;;
59418;SDS011;45224;50.904;6.038;2023-06-04T08:32:45;3.83;;;1.00;;
59418;SDS011;45224;50.904;6.038;2023-06-04T08:35:46;3.95;;;0.95;;
59418;SDS011;45224;50.904;6.038;2023-06-04T08:38:47;3.00;;;0.80;;
59418;SDS011;45224;50.904;6.038;2023-06-04T08:40:22;2.13;;;1.00;;
59418;SDS011;45224;50.904;6.038;2023-06-04T08:43:25;4.45;;;0.82;;
59418;SDS011;45224;50.904;6.038;2023-06-04T08:44:56;1.58;;;1.00;;
59418;SDS011;45224;50.904;6.038;2023-06-04T08:46:28;1.48;;;0.85;;
59418;SDS011;45224;50.904;6.038;2023-06-04T08:47:59;2.55;;;1.00;;
59418;SDS011;45224;50.904;6.038;2023-06-04T08:49:33;1.63;;;0.90;;
59418;SDS011;45224;50.904;6.038;2023-06-04T08:51:07;1.38;;;0.70;;
59418;SDS011;45224;50.904;6.038;2023-06-04T08:52:40;1.88;;;1.00;;
59418;SDS011;45224;50.904;6.038;2023-06-04T08:54:11;3.75;;;0.85;;
59418;SDS011;45224;50.904;6.038;2023-06-04T08:55:43;1.25;;;0.82;;
59418;SDS011;45224;50.904;6.038;2023-06-04T08:57:15;2.10;;;1.05;;
59418;SDS011;45224;50.904;6.038;2023-06-04T08:58:48;1.23;;;0.82;;
59418;SDS011;45224;50.904;6.038;2023-06-04T09:00:18;2.50;;;1.00;;
59418;SDS011;45224;50.904;6.038;2023-06-04T09:01:51;3.50;;;1.00;;
59418;SDS011;45224;50.904;6.038;2023-06-04T09:03:24;2.22;;;0.90;;
59418;SDS011;45224;50.904;6.038;2023-06-04T09:04:56;2.17;;;0.80;;
59418;SDS011;45224;50.904;6.038;2023-06-04T09:06:27;3.72;;;0.82;;
59418;SDS011;45224;50.904;6.038;2023-06-04T09:07:59;3.08;;;0.90;;
59418;SDS011;45224;50.904;6.038;2023-06-04T09:09:31;1.92;;;0.70;;
59418;SDS011;45224;50.904;6.038;2023-06-04T09:11:10;0.90;;;0.73;;
59418;SDS011;45224;50.904;6.038;2023-06-04T09:12:46;2.10;;;0.80;;
59418;SDS011;45224;50.904;6.038;2023-06-04T09:14:19;4.57;;;1.00;;
59418;SDS011;45224;50.904;6.038;2023-06-04T09:16:08;2.30;;;1.00;;
59418;SDS011;45224;50.904;6.038;2023-06-04T09:17:38;2.40;;;0.80;;
59418;SDS011;45224;50.904;6.038;2023-06-04T09:19:09;6.68;;;0.90;;
59418;SDS011;45224;50.904;6.038;2023-06-04T09:20:40;3.08;;;0.82;;
59418;SDS011;45224;50.904;6.038;2023-06-04T09:22:10;5.88;;;0.90;;
59418;SDS011;45224;50.904;6.038;2023-06-04T09:23:44;2.13;;;0.80;;
59418;SDS011;45224;50.904;6.038;2023-06-04T09:25:21;7.60;;;1.02;;
59418;SDS011;45224;50.904;6.038;2023-06-04T09:26:55;3.10;;;0.93;;
59418;SDS011;45224;50.904;6.038;2023-06-04T09:28:25;1.50;;;0.80;;
59418;SDS011;45224;50.904;6.038;2023-06-04T09:30:00;2.75;;;0.98;;
59418;SDS011;45224;50.904;6.038;2023-06-04T09:31:31;2.40;;;1.08;;
59418;SDS011;45224;50.904;6.038;2023-06-04T09:33:07;3.30;;;1.10;;
59418;SDS011;45224;50.904;6.038;2023-06-04T09:34:38;1.55;;;0.82;;
59418;SDS011;45224;50.904;6.038;2023-06-04T09:36:15;2.05;;;0.90;;
59418;SDS011;45224;50.904;6.038;2023-06-04T09:37:55;1.73;;;0.90;;
59418;SDS011;45224;50.904;6.038;2023-06-04T09:39:26;2.95;;;0.80;;